sensor_id;sensor_type;location;lat;lon;timestamp;P1;durP1;ratioP1;P2;durP2;ratioP2
27428;SDS011;14881;48.092;11.574;2023-07-02T00:01:06;4.35;;;3.30;;
27428;SDS011;14881;48.092;11.574;2023-07-02T00:03:32;5.78;;;3.40;;
27428;SDS011;14881;48.092;11.574;2023-07-02T00:05:59;5.38;;;3.92;;
27428;SDS011;14881;48.092;11.574;2023-07-02T00:08:26;5.05;;;3.80;;
27428;SDS011;14881;48.092;11.574;2023-07-02T00:10:52;5.00;;;3.75;;
27428;SDS011;14881;48.092;11.574;2023-07-02T00:13:19;5.80;;;3.53;;
27428;SDS011;14881;48.092;11.574;2023-07-02T00:15:45;5.00;;;3.70;;
27428;SDS011;14881;48.092;11.574;2023-07-02T00:18:11;4.20;;;3.42;;
27428;SDS011;14881;48.092;11.574;2023-07-02T00:20:41;6.22;;;3.80;;
27428;SDS011;14881;48.092;11.574;2023-07-02T00:23:09;5.15;;;3.55;;
27428;SDS011;14881;48.092;11.574;2023-07-02T00:25:35;12.00;;;3.20;;
27428;SDS011;14881;48.092;11.574;2023-07-02T00:28:02;4.15;;;3.47;;
27428;SDS011;14881;48.092;11.574;2023-07-02T00:30:29;3.83;;;3.50;;
27428;SDS011;14881;48.092;11.574;2023-07-02T00:32:55;4.90;;;3.38;;
27428;SDS011;14881;48.092;11.574;2023-07-02T00:35:22;3.70;;;3.33;;
27428;SDS011;14881;48.092;11.574;2023-07-02T00:37:48;4.20;;;3.20;;
27428;SDS011;14881;48.092;11.574;2023-07-02T00:40:17;3.55;;;3.22;;
27428;SDS011;14881;48.092;11.574;2023-07-02T00:42:43;3.80;;;3.40;;
27428;SDS011;14881;48.092;11.574;2023-07-02T00:45:09;4.00;;;3.67;;
27428;SDS011;14881;48.092;11.574;2023-07-02T00:47:36;4.30;;;3.50;;
27428;SDS011;14881;48.092;11.574;2023-07-02T00:50:03;3.72;;;3.17;;
27428;SDS011;14881;48.092;11.574;2023-07-02T00:52:30;3.65;;;3.33;;
27428;SDS011;14881;48.092;11.574;2023-07-02T00:54:57;5.32;;;3.67;;
27428;SDS011;14881;48.092;11.574;2023-07-02T00:57:24;3.78;;;3.45;;
27428;SDS011;14881;48.092;11.574;2023-07-02T00:59:55;5.45;;;3.80;;
27428;SDS011;14881;48.092;11.574;2023-07-02T01:02:22;5.55;;;3.30;;
27428;SDS011;14881;48.092;11.574;2023-07-02T01:04:51;5.43;;;3.30;;
27428;SDS011;14881;48.092;11.574;2023-07-02T01:07:23;3.50;;;3.20;;
27428;SDS011;14881;48.092;11.574;2023-07-02T01:09:49;3.92;;;3.25;;
27428;SDS011;14881;48.092;11.574;2023-07-02T01:12:17;4.32;;;3.72;;
27428;SDS011;14881;48.092;11.574;2023-07-02T01:14:46;6.05;;;3.30;;
27428;SDS011;14881;48.092;11.574;2023-07-02T01:17:17;5.18;;;3.35;;
27428;SDS011;14881;48.092;11.574;2023-07-02T01:19:46;3.42;;;3.13;;
27428;SDS011;14881;48.092;11.574;2023-07-02T01:22:19;3.58;;;3.28;;
27428;SDS011;14881;48.092;11.574;2023-07-02T01:24:47;3.00;;;2.70;;
27428;SDS011;14881;48.092;11.574;2023-07-02T01:27:14;4.10;;;3.25;;
27428;SDS011;14881;48.092;11.574;2023-07-02T01:29:41;3.20;;;2.90;;
27428;SDS011;14881;48.092;11.574;2023-07-02T01:32:10;2.60;;;2.40;;
27428;SDS011;14881;48.092;11.574;2023-07-02T01:34:36;2.80;;;2.60;;
27428;SDS011;14881;48.092;11.574;2023-07-02T01:37:04;4.80;;;3.00;;
27428;SDS011;14881;48.092;11.574;2023-07-02T01:39:31;2.45;;;2.25;;
27428;SDS011;14881;48.092;11.574;2023-07-02T01:42:06;2.85;;;2.22;;
27428;SDS011;14881;48.092;11.574;2023-07-02T01:44:34;4.15;;;2.53;;
27428;SDS011;14881;48.092;11.574;2023-07-02T01:47:00;2.60;;;2.08;;
27428;SDS011;14881;48.092;11.574;2023-07-02T01:49:27;2.63;;;2.40;;
27428;SDS011;14881;48.092;11.574;2023-07-02T01:51:53;2.45;;;2.25;;
27428;SDS011;14881;48.092;11.574;2023-07-02T01:54:22;2.30;;;2.10;;
27428;SDS011;14881;48.092;11.574;2023-07-02T01:56:49;2.20;;;2.00;;
27428;SDS011;14881;48.092;11.574;2023-07-02T01:59:16;2.40;;;2.20;;
27428;SDS011;14881;48.092;11.574;2023-07-02T02:01:42;3.90;;;2.30;;
27428;SDS011;14881;48.092;11.574;2023-07-02T02:04:09;2.58;;;2.38;;
27428;SDS011;14881;48.092;11.574;2023-07-02T02:06:37;2.63;;;2.42;;
27428;SDS011;14881;48.092;11.574;2023-07-02T02:09:04;2.15;;;2.00;;
27428;SDS011;14881;48.092;11.574;2023-07-02T02:11:32;2.55;;;2.35;;
27428;SDS011;14881;48.092;11.574;2023-07-02T02:14:00;3.28;;;2.30;;
27428;SDS011;14881;48.092;11.574;2023-07-02T02:16:27;3.75;;;2.70;;
27428;SDS011;14881;48.092;11.574;2023-07-02T02:18:53;2.92;;;2.70;;
27428;SDS011;14881;48.092;11.574;2023-07-02T02:21:20;2.40;;;2.20;;
27428;SDS011;14881;48.092;11.574;2023-07-02T02:23:48;3.67;;;2.33;;
27428;SDS011;14881;48.092;11.574;2023-07-02T02:26:14;2.50;;;2.30;;
27428;SDS011;14881;48.092;11.574;2023-07-02T02:28:42;3.22;;;2.58;;
27428;SDS011;14881;48.092;11.574;2023-07-02T02:31:09;3.03;;;2.60;;
27428;SDS011;14881;48.092;11.574;2023-07-02T02:33:35;2.70;;;2.50;;
27428;SDS011;14881;48.092;11.574;2023-07-02T02:36:02;2.53;;;2.28;;
27428;SDS011;14881;48.092;11.574;2023-07-02T02:38:28;2.40;;;2.20;;
27428;SDS011;14881;48.092;11.574;2023-07-02T02:40:55;2.85;;;2.65;;
27428;SDS011;14881;48.092;11.574;2023-07-02T02:43:21;2.97;;;2.67;;
27428;SDS011;14881;48.092;11.574;2023-07-02T02:45:48;2.83;;;2.40;;
27428;SDS011;14881;48.092;11.574;2023-07-02T02:48:15;4.55;;;2.60;;
27428;SDS011;14881;48.092;11.574;2023-07-02T02:50:41;2.80;;;2.60;;
27428;SDS011;14881;48.092;11.574;2023-07-02T02:53:08;2.88;;;2.60;;
27428;SDS011;14881;48.092;11.574;2023-07-02T02:55:35;3.05;;;2.67;;
27428;SDS011;14881;48.092;11.574;2023-07-02T02:58:02;3.15;;;2.33;;
27428;SDS011;14881;48.092;11.574;2023-07-02T03:00:29;2.70;;;2.50;;
27428;SDS011;14881;48.092;11.574;2023-07-02T03:03:05;4.63;;;2.45;;
27428;SDS011;14881;48.092;11.574;2023-07-02T03:05:35;3.15;;;2.50;;
27428;SDS011;14881;48.092;11.574;2023-07-02T03:08:02;2.40;;;2.20;;
27428;SDS011;14881;48.092;11.574;2023-07-02T03:10:28;4.82;;;2.55;;
27428;SDS011;14881;48.092;11.574;2023-07-02T03:12:55;2.42;;;2.22;;
27428;SDS011;14881;48.092;11.574;2023-07-02T03:15:21;3.25;;;2.55;;
27428;SDS011;14881;48.092;11.574;2023-07-02T03:17:47;2.50;;;2.30;;
27428;SDS011;14881;48.092;11.574;2023-07-02T03:20:15;2.83;;;2.63;;
27428;SDS011;14881;48.092;11.574;2023-07-02T03:22:42;3.75;;;2.97;;
27428;SDS011;14881;48.092;11.574;2023-07-02T03:25:08;3.75;;;3.10;;
27428;SDS011;14881;48.092;11.574;2023-07-02T03:27:34;4.40;;;2.97;;
27428;SDS011;14881;48.092;11.574;2023-07-02T03:30:01;4.47;;;3.20;;
27428;SDS011;14881;48.092;11.574;2023-07-02T03:32:29;4.25;;;3.40;;
27428;SDS011;14881;48.092;11.574;2023-07-02T03:34:55;5.18;;;3.17;;
27428;SDS011;14881;48.092;11.574;2023-07-02T03:37:22;4.90;;;3.47;;
27428;SDS011;14881;48.092;11.574;2023-07-02T03:39:49;6.32;;;3.40;;
27428;SDS011;14881;48.092;11.574;2023-07-02T03:42:15;4.45;;;3.53;;
27428;SDS011;14881;48.092;11.574;2023-07-02T03:44:42;5.03;;;3.35;;
27428;SDS011;14881;48.092;11.574;2023-07-02T03:47:08;5.18;;;3.55;;
27428;SDS011;14881;48.092;11.574;2023-07-02T03:49:35;6.38;;;4.22;;
27428;SDS011;14881;48.092;11.574;2023-07-02T03:52:01;7.47;;;4.15;;
27428;SDS011;14881;48.092;11.574;2023-07-02T03:54:28;6.15;;;4.32;;
27428;SDS011;14881;48.092;11.574;2023-07-02T03:56:54;8.27;;;4.45;;
27428;SDS011;14881;48.092;11.574;2023-07-02T03:59:21;6.57;;;4.60;;
27428;SDS011;14881;48.092;11.574;2023-07-02T04:01:47;5.95;;;4.63;;
27428;SDS011;14881;48.092;11.574;2023-07-02T04:04:15;6.70;;;4.78;;
27428;SDS011;14881;48.092;11.574;2023-07-02T04:06:41;5.65;;;4.63;;
27428;SDS011;14881;48.092;11.574;2023-07-02T04:09:07;7.60;;;4.65;;
27428;SDS011;14881;48.092;11.574;2023-07-02T04:11:35;6.65;;;4.93;;
27428;SDS011;14881;48.092;11.574;2023-07-02T04:14:01;5.32;;;4.55;;
27428;SDS011;14881;48.092;11.574;2023-07-02T04:16:28;5.05;;;4.35;;
27428;SDS011;14881;48.092;11.574;2023-07-02T04:18:54;5.47;;;4.97;;
27428;SDS011;14881;48.092;11.574;2023-07-02T04:21:21;4.45;;;4.05;;
27428;SDS011;14881;48.092;11.574;2023-07-02T04:23:47;6.97;;;5.47;;
27428;SDS011;14881;48.092;11.574;2023-07-02T04:26:14;6.60;;;4.97;;
27428;SDS011;14881;48.092;11.574;2023-07-02T04:29:01;8.00;;;4.78;;
27428;SDS011;14881;48.092;11.574;2023-07-02T04:31:27;6.18;;;4.70;;
27428;SDS011;14881;48.092;11.574;2023-07-02T04:33:54;5.75;;;5.10;;
27428;SDS011;14881;48.092;11.574;2023-07-02T04:36:20;5.50;;;4.90;;
27428;SDS011;14881;48.092;11.574;2023-07-02T04:38:47;6.57;;;4.65;;
27428;SDS011;14881;48.092;11.574;2023-07-02T04:41:13;6.25;;;4.57;;
27428;SDS011;14881;48.092;11.574;2023-07-02T04:43:43;5.55;;;4.85;;
27428;SDS011;14881;48.092;11.574;2023-07-02T04:46:14;6.78;;;4.57;;
27428;SDS011;14881;48.092;11.574;2023-07-02T04:48:43;8.77;;;5.10;;
27428;SDS011;14881;48.092;11.574;2023-07-02T04:51:09;5.15;;;4.60;;
27428;SDS011;14881;48.092;11.574;2023-07-02T04:53:36;6.07;;;4.45;;
27428;SDS011;14881;48.092;11.574;2023-07-02T04:56:03;8.23;;;5.22;;
27428;SDS011;14881;48.092;11.574;2023-07-02T04:58:32;6.30;;;5.18;;
27428;SDS011;14881;48.092;11.574;2023-07-02T05:00:58;11.00;;;4.85;;
27428;SDS011;14881;48.092;11.574;2023-07-02T05:03:25;5.45;;;4.95;;
27428;SDS011;14881;48.092;11.574;2023-07-02T05:05:52;7.95;;;5.15;;
27428;SDS011;14881;48.092;11.574;2023-07-02T05:08:18;6.47;;;4.93;;
27428;SDS011;14881;48.092;11.574;2023-07-02T05:10:45;5.82;;;4.72;;
27428;SDS011;14881;48.092;11.574;2023-07-02T05:13:12;6.07;;;4.93;;
27428;SDS011;14881;48.092;11.574;2023-07-02T05:15:39;7.25;;;4.68;;
27428;SDS011;14881;48.092;11.574;2023-07-02T05:18:07;5.82;;;4.85;;
27428;SDS011;14881;48.092;11.574;2023-07-02T05:20:34;5.43;;;4.93;;
27428;SDS011;14881;48.092;11.574;2023-07-02T05:23:00;7.38;;;5.10;;
27428;SDS011;14881;48.092;11.574;2023-07-02T05:25:27;5.80;;;4.57;;
27428;SDS011;14881;48.092;11.574;2023-07-02T05:27:53;6.88;;;4.60;;
27428;SDS011;14881;48.092;11.574;2023-07-02T05:30:19;7.43;;;4.72;;
27428;SDS011;14881;48.092;11.574;2023-07-02T05:32:46;5.22;;;4.60;;
27428;SDS011;14881;48.092;11.574;2023-07-02T05:35:12;7.88;;;5.70;;
27428;SDS011;14881;48.092;11.574;2023-07-02T05:37:39;4.85;;;4.15;;
27428;SDS011;14881;48.092;11.574;2023-07-02T05:40:06;10.45;;;5.05;;
27428;SDS011;14881;48.092;11.574;2023-07-02T05:42:34;5.05;;;4.55;;
27428;SDS011;14881;48.092;11.574;2023-07-02T05:45:01;5.78;;;4.43;;
27428;SDS011;14881;48.092;11.574;2023-07-02T05:47:28;5.32;;;4.03;;
27428;SDS011;14881;48.092;11.574;2023-07-02T05:49:56;5.18;;;4.68;;
27428;SDS011;14881;48.092;11.574;2023-07-02T05:52:22;5.97;;;4.82;;
27428;SDS011;14881;48.092;11.574;2023-07-02T05:54:49;6.43;;;4.38;;
27428;SDS011;14881;48.092;11.574;2023-07-02T05:57:16;6.28;;;4.75;;
27428;SDS011;14881;48.092;11.574;2023-07-02T05:59:42;5.70;;;4.55;;
27428;SDS011;14881;48.092;11.574;2023-07-02T06:02:08;8.15;;;4.68;;
27428;SDS011;14881;48.092;11.574;2023-07-02T06:04:35;4.30;;;3.83;;
27428;SDS011;14881;48.092;11.574;2023-07-02T06:07:01;5.80;;;4.47;;
27428;SDS011;14881;48.092;11.574;2023-07-02T06:09:28;4.53;;;4.13;;
27428;SDS011;14881;48.092;11.574;2023-07-02T06:11:55;6.45;;;5.20;;
27428;SDS011;14881;48.092;11.574;2023-07-02T06:14:21;5.35;;;4.53;;
27428;SDS011;14881;48.092;11.574;2023-07-02T06:16:51;6.13;;;4.93;;
27428;SDS011;14881;48.092;11.574;2023-07-02T06:19:17;5.50;;;5.00;;
27428;SDS011;14881;48.092;11.574;2023-07-02T06:21:44;6.22;;;4.88;;
27428;SDS011;14881;48.092;11.574;2023-07-02T06:24:10;5.45;;;4.95;;
27428;SDS011;14881;48.092;11.574;2023-07-02T06:26:37;8.25;;;5.18;;
27428;SDS011;14881;48.092;11.574;2023-07-02T06:29:04;6.50;;;5.10;;
27428;SDS011;14881;48.092;11.574;2023-07-02T06:31:30;7.25;;;4.95;;
27428;SDS011;14881;48.092;11.574;2023-07-02T06:33:56;7.55;;;5.00;;
27428;SDS011;14881;48.092;11.574;2023-07-02T06:36:23;5.82;;;4.80;;
27428;SDS011;14881;48.092;11.574;2023-07-02T06:38:49;4.78;;;4.32;;
27428;SDS011;14881;48.092;11.574;2023-07-02T06:41:16;6.40;;;4.70;;
27428;SDS011;14881;48.092;11.574;2023-07-02T06:43:42;8.23;;;4.95;;
27428;SDS011;14881;48.092;11.574;2023-07-02T06:46:10;6.90;;;5.07;;
27428;SDS011;14881;48.092;11.574;2023-07-02T06:48:37;8.30;;;4.60;;
27428;SDS011;14881;48.092;11.574;2023-07-02T06:51:03;7.32;;;4.60;;
27428;SDS011;14881;48.092;11.574;2023-07-02T06:53:30;7.57;;;4.82;;
27428;SDS011;14881;48.092;11.574;2023-07-02T06:55:56;5.40;;;4.68;;
27428;SDS011;14881;48.092;11.574;2023-07-02T06:58:22;5.32;;;4.78;;
27428;SDS011;14881;48.092;11.574;2023-07-02T07:00:49;6.20;;;4.93;;
27428;SDS011;14881;48.092;11.574;2023-07-02T07:03:16;5.82;;;4.78;;
27428;SDS011;14881;48.092;11.574;2023-07-02T07:05:43;8.55;;;5.75;;
27428;SDS011;14881;48.092;11.574;2023-07-02T07:08:09;8.48;;;6.03;;
27428;SDS011;14881;48.092;11.574;2023-07-02T07:10:36;7.93;;;5.70;;
27428;SDS011;14881;48.092;11.574;2023-07-02T07:13:02;7.07;;;5.90;;
27428;SDS011;14881;48.092;11.574;2023-07-02T07:15:30;7.53;;;4.70;;
27428;SDS011;14881;48.092;11.574;2023-07-02T07:17:58;7.00;;;5.65;;
27428;SDS011;14881;48.092;11.574;2023-07-02T07:20:25;6.47;;;5.40;;
27428;SDS011;14881;48.092;11.574;2023-07-02T07:22:52;6.85;;;5.72;;
27428;SDS011;14881;48.092;11.574;2023-07-02T07:25:18;9.02;;;6.50;;
27428;SDS011;14881;48.092;11.574;2023-07-02T07:27:45;6.93;;;5.88;;
27428;SDS011;14881;48.092;11.574;2023-07-02T07:30:12;7.20;;;5.78;;
27428;SDS011;14881;48.092;11.574;2023-07-02T07:32:39;9.25;;;7.68;;
27428;SDS011;14881;48.092;11.574;2023-07-02T07:35:06;8.65;;;6.93;;
27428;SDS011;14881;48.092;11.574;2023-07-02T07:37:37;9.93;;;7.28;;
27428;SDS011;14881;48.092;11.574;2023-07-02T07:40:03;7.97;;;6.40;;
27428;SDS011;14881;48.092;11.574;2023-07-02T07:42:31;9.00;;;6.72;;
27428;SDS011;14881;48.092;11.574;2023-07-02T07:44:58;9.32;;;6.25;;
27428;SDS011;14881;48.092;11.574;2023-07-02T07:47:24;8.10;;;5.97;;
27428;SDS011;14881;48.092;11.574;2023-07-02T07:49:51;8.65;;;6.60;;
27428;SDS011;14881;48.092;11.574;2023-07-02T07:52:17;8.98;;;6.55;;
27428;SDS011;14881;48.092;11.574;2023-07-02T07:54:44;9.52;;;6.55;;
27428;SDS011;14881;48.092;11.574;2023-07-02T07:57:11;9.32;;;6.93;;
27428;SDS011;14881;48.092;11.574;2023-07-02T07:59:37;8.60;;;7.05;;
27428;SDS011;14881;48.092;11.574;2023-07-02T08:02:04;7.85;;;7.03;;
27428;SDS011;14881;48.092;11.574;2023-07-02T08:04:31;8.80;;;6.95;;
27428;SDS011;14881;48.092;11.574;2023-07-02T08:06:57;8.77;;;6.70;;
27428;SDS011;14881;48.092;11.574;2023-07-02T08:09:24;10.95;;;8.05;;
27428;SDS011;14881;48.092;11.574;2023-07-02T08:11:51;9.05;;;7.43;;
27428;SDS011;14881;48.092;11.574;2023-07-02T08:14:17;8.98;;;7.85;;
27428;SDS011;14881;48.092;11.574;2023-07-02T08:16:44;8.65;;;7.00;;
27428;SDS011;14881;48.092;11.574;2023-07-02T08:19:10;8.80;;;6.00;;
27428;SDS011;14881;48.092;11.574;2023-07-02T08:21:37;7.25;;;6.00;;
27428;SDS011;14881;48.092;11.574;2023-07-02T08:24:03;6.40;;;5.40;;
27428;SDS011;14881;48.092;11.574;2023-07-02T08:26:31;5.63;;;4.65;;
27428;SDS011;14881;48.092;11.574;2023-07-02T08:28:58;6.03;;;5.47;;
27428;SDS011;14881;48.092;11.574;2023-07-02T08:31:24;6.22;;;5.05;;
27428;SDS011;14881;48.092;11.574;2023-07-02T08:33:51;7.85;;;5.05;;
27428;SDS011;14881;48.092;11.574;2023-07-02T08:36:17;5.70;;;4.45;;
27428;SDS011;14881;48.092;11.574;2023-07-02T08:38:44;4.43;;;4.00;;
27428;SDS011;14881;48.092;11.574;2023-07-02T08:41:10;5.93;;;3.78;;
27428;SDS011;14881;48.092;11.574;2023-07-02T08:43:37;4.30;;;3.90;;
27428;SDS011;14881;48.092;11.574;2023-07-02T08:46:05;5.30;;;4.55;;
27428;SDS011;14881;48.092;11.574;2023-07-02T08:48:33;5.68;;;4.43;;
27428;SDS011;14881;48.092;11.574;2023-07-02T08:50:59;4.70;;;3.85;;
27428;SDS011;14881;48.092;11.574;2023-07-02T08:53:26;4.50;;;3.72;;
27428;SDS011;14881;48.092;11.574;2023-07-02T08:55:55;3.80;;;3.47;;
27428;SDS011;14881;48.092;11.574;2023-07-02T08:58:22;4.57;;;4.18;;
27428;SDS011;14881;48.092;11.574;2023-07-02T09:01:04;3.85;;;3.50;;
27428;SDS011;14881;48.092;11.574;2023-07-02T09:03:32;4.55;;;4.15;;
27428;SDS011;14881;48.092;11.574;2023-07-02T09:05:58;4.00;;;3.60;;
27428;SDS011;14881;48.092;11.574;2023-07-02T09:08:25;4.50;;;4.10;;
27428;SDS011;14881;48.092;11.574;2023-07-02T09:10:53;4.53;;;4.13;;
27428;SDS011;14881;48.092;11.574;2023-07-02T09:13:19;4.20;;;3.80;;
27428;SDS011;14881;48.092;11.574;2023-07-02T09:15:46;3.85;;;3.55;;
27428;SDS011;14881;48.092;11.574;2023-07-02T09:18:16;3.80;;;3.40;;
27428;SDS011;14881;48.092;11.574;2023-07-02T09:20:43;4.03;;;3.67;;
27428;SDS011;14881;48.092;11.574;2023-07-02T09:23:10;4.15;;;3.45;;
27428;SDS011;14881;48.092;11.574;2023-07-02T09:25:37;4.03;;;3.63;;
27428;SDS011;14881;48.092;11.574;2023-07-02T09:28:13;4.40;;;4.00;;
27428;SDS011;14881;48.092;11.574;2023-07-02T09:30:48;4.85;;;3.55;;
27428;SDS011;14881;48.092;11.574;2023-07-02T09:33:16;3.85;;;3.55;;
27428;SDS011;14881;48.092;11.574;2023-07-02T09:35:43;4.28;;;3.88;;
27428;SDS011;14881;48.092;11.574;2023-07-02T09:38:10;3.80;;;2.80;;
27428;SDS011;14881;48.092;11.574;2023-07-02T09:40:37;6.00;;;3.75;;
27428;SDS011;14881;48.092;11.574;2023-07-02T09:43:10;4.28;;;3.80;;
27428;SDS011;14881;48.092;11.574;2023-07-02T09:45:37;5.38;;;3.70;;
27428;SDS011;14881;48.092;11.574;2023-07-02T09:48:07;4.35;;;3.95;;
27428;SDS011;14881;48.092;11.574;2023-07-02T09:50:35;5.30;;;3.92;;
27428;SDS011;14881;48.092;11.574;2023-07-02T09:53:03;3.97;;;3.67;;
27428;SDS011;14881;48.092;11.574;2023-07-02T09:55:31;6.03;;;3.90;;
27428;SDS011;14881;48.092;11.574;2023-07-02T09:57:58;6.03;;;3.58;;
27428;SDS011;14881;48.092;11.574;2023-07-02T10:00:29;4.95;;;3.90;;
27428;SDS011;14881;48.092;11.574;2023-07-02T10:02:56;5.80;;;4.20;;
27428;SDS011;14881;48.092;11.574;2023-07-02T10:05:25;5.15;;;4.03;;
27428;SDS011;14881;48.092;11.574;2023-07-02T10:07:52;7.15;;;4.35;;
27428;SDS011;14881;48.092;11.574;2023-07-02T10:10:26;5.57;;;4.47;;
27428;SDS011;14881;48.092;11.574;2023-07-02T10:12:53;6.75;;;4.35;;
27428;SDS011;14881;48.092;11.574;2023-07-02T10:15:23;5.85;;;5.03;;
27428;SDS011;14881;48.092;11.574;2023-07-02T10:17:54;6.65;;;5.35;;
27428;SDS011;14881;48.092;11.574;2023-07-02T10:20:30;6.78;;;4.95;;
27428;SDS011;14881;48.092;11.574;2023-07-02T10:22:58;8.18;;;5.03;;
27428;SDS011;14881;48.092;11.574;2023-07-02T10:25:30;6.57;;;5.57;;
27428;SDS011;14881;48.092;11.574;2023-07-02T10:27:57;7.70;;;6.10;;
27428;SDS011;14881;48.092;11.574;2023-07-02T10:30:31;7.38;;;5.72;;
27428;SDS011;14881;48.092;11.574;2023-07-02T10:33:08;8.95;;;6.15;;
27428;SDS011;14881;48.092;11.574;2023-07-02T10:35:44;7.88;;;5.80;;
27428;SDS011;14881;48.092;11.574;2023-07-02T10:38:18;8.18;;;6.22;;
27428;SDS011;14881;48.092;11.574;2023-07-02T10:40:45;8.00;;;6.10;;
27428;SDS011;14881;48.092;11.574;2023-07-02T10:43:13;10.93;;;7.65;;
27428;SDS011;14881;48.092;11.574;2023-07-02T10:45:39;11.20;;;7.28;;
27428;SDS011;14881;48.092;11.574;2023-07-02T10:48:08;9.38;;;6.85;;
27428;SDS011;14881;48.092;11.574;2023-07-02T10:50:35;11.60;;;7.00;;
27428;SDS011;14881;48.092;11.574;2023-07-02T10:53:14;10.65;;;7.03;;
27428;SDS011;14881;48.092;11.574;2023-07-02T10:55:41;12.57;;;7.60;;
27428;SDS011;14881;48.092;11.574;2023-07-02T10:58:08;11.20;;;7.88;;
27428;SDS011;14881;48.092;11.574;2023-07-02T11:00:43;10.23;;;7.50;;
27428;SDS011;14881;48.092;11.574;2023-07-02T11:03:20;12.82;;;7.03;;
27428;SDS011;14881;48.092;11.574;2023-07-02T11:05:48;9.38;;;7.82;;
27428;SDS011;14881;48.092;11.574;2023-07-02T11:08:16;10.10;;;7.57;;
27428;SDS011;14881;48.092;11.574;2023-07-02T11:10:44;11.88;;;7.65;;
27428;SDS011;14881;48.092;11.574;2023-07-02T11:13:13;10.55;;;7.43;;
27428;SDS011;14881;48.092;11.574;2023-07-02T11:15:43;13.60;;;8.27;;
27428;SDS011;14881;48.092;11.574;2023-07-02T11:18:11;10.93;;;8.10;;
27428;SDS011;14881;48.092;11.574;2023-07-02T11:20:43;11.05;;;8.82;;
27428;SDS011;14881;48.092;11.574;2023-07-02T11:23:17;13.48;;;8.48;;
27428;SDS011;14881;48.092;11.574;2023-07-02T11:25:54;14.00;;;8.45;;
27428;SDS011;14881;48.092;11.574;2023-07-02T11:28:21;12.23;;;8.40;;
27428;SDS011;14881;48.092;11.574;2023-07-02T11:30:48;13.38;;;8.48;;
27428;SDS011;14881;48.092;11.574;2023-07-02T11:33:14;13.90;;;8.38;;
27428;SDS011;14881;48.092;11.574;2023-07-02T11:35:41;14.55;;;10.05;;
27428;SDS011;14881;48.092;11.574;2023-07-02T11:38:09;14.38;;;9.75;;
27428;SDS011;14881;48.092;11.574;2023-07-02T11:40:36;15.82;;;9.40;;
27428;SDS011;14881;48.092;11.574;2023-07-02T11:43:03;14.18;;;9.18;;
27428;SDS011;14881;48.092;11.574;2023-07-02T11:45:29;13.75;;;9.07;;
27428;SDS011;14881;48.092;11.574;2023-07-02T11:47:56;11.32;;;8.90;;
27428;SDS011;14881;48.092;11.574;2023-07-02T11:50:22;14.18;;;9.30;;
27428;SDS011;14881;48.092;11.574;2023-07-02T11:52:53;12.43;;;9.15;;
27428;SDS011;14881;48.092;11.574;2023-07-02T11:55:19;13.95;;;9.48;;
27428;SDS011;14881;48.092;11.574;2023-07-02T11:57:46;12.20;;;8.95;;
27428;SDS011;14881;48.092;11.574;2023-07-02T12:00:15;11.23;;;8.65;;
27428;SDS011;14881;48.092;11.574;2023-07-02T12:02:41;15.00;;;9.82;;
27428;SDS011;14881;48.092;11.574;2023-07-02T12:05:08;11.48;;;9.20;;
27428;SDS011;14881;48.092;11.574;2023-07-02T12:07:38;13.57;;;9.82;;
27428;SDS011;14881;48.092;11.574;2023-07-02T12:10:05;14.65;;;9.73;;
27428;SDS011;14881;48.092;11.574;2023-07-02T12:12:33;13.15;;;9.35;;
27428;SDS011;14881;48.092;11.574;2023-07-02T12:15:02;14.57;;;9.95;;
27428;SDS011;14881;48.092;11.574;2023-07-02T12:17:29;14.52;;;10.18;;
27428;SDS011;14881;48.092;11.574;2023-07-02T12:19:56;14.40;;;9.95;;
27428;SDS011;14881;48.092;11.574;2023-07-02T12:22:22;13.55;;;10.27;;
27428;SDS011;14881;48.092;11.574;2023-07-02T12:24:49;17.58;;;10.95;;
27428;SDS011;14881;48.092;11.574;2023-07-02T12:27:15;14.15;;;10.63;;
27428;SDS011;14881;48.092;11.574;2023-07-02T12:29:42;13.82;;;9.88;;
27428;SDS011;14881;48.092;11.574;2023-07-02T12:32:08;14.73;;;10.52;;
27428;SDS011;14881;48.092;11.574;2023-07-02T12:34:35;15.30;;;11.15;;
27428;SDS011;14881;48.092;11.574;2023-07-02T12:37:02;16.63;;;11.68;;
27428;SDS011;14881;48.092;11.574;2023-07-02T12:39:29;15.80;;;11.35;;
27428;SDS011;14881;48.092;11.574;2023-07-02T12:41:55;15.63;;;12.05;;
27428;SDS011;14881;48.092;11.574;2023-07-02T12:44:22;18.55;;;12.35;;
27428;SDS011;14881;48.092;11.574;2023-07-02T12:46:48;17.38;;;12.40;;
27428;SDS011;14881;48.092;11.574;2023-07-02T12:49:14;16.88;;;12.05;;
27428;SDS011;14881;48.092;11.574;2023-07-02T12:51:42;17.33;;;11.95;;
27428;SDS011;14881;48.092;11.574;2023-07-02T12:54:08;18.02;;;12.90;;
27428;SDS011;14881;48.092;11.574;2023-07-02T12:56:34;17.17;;;13.32;;
27428;SDS011;14881;48.092;11.574;2023-07-02T12:59:01;18.20;;;13.07;;
27428;SDS011;14881;48.092;11.574;2023-07-02T13:01:28;20.60;;;14.13;;
27428;SDS011;14881;48.092;11.574;2023-07-02T13:03:57;19.50;;;12.65;;
27428;SDS011;14881;48.092;11.574;2023-07-02T13:06:25;19.00;;;14.13;;
27428;SDS011;14881;48.092;11.574;2023-07-02T13:08:52;21.70;;;14.13;;
27428;SDS011;14881;48.092;11.574;2023-07-02T13:11:18;19.50;;;13.93;;
27428;SDS011;14881;48.092;11.574;2023-07-02T13:13:45;18.52;;;14.82;;
27428;SDS011;14881;48.092;11.574;2023-07-02T13:16:11;20.92;;;13.70;;
27428;SDS011;14881;48.092;11.574;2023-07-02T13:18:45;17.90;;;13.18;;
27428;SDS011;14881;48.092;11.574;2023-07-02T13:21:11;17.35;;;14.00;;
27428;SDS011;14881;48.092;11.574;2023-07-02T13:23:37;21.45;;;14.32;;
27428;SDS011;14881;48.092;11.574;2023-07-02T13:26:04;21.75;;;14.50;;
27428;SDS011;14881;48.092;11.574;2023-07-02T13:28:31;21.80;;;14.27;;
27428;SDS011;14881;48.092;11.574;2023-07-02T13:30:57;17.25;;;13.30;;
27428;SDS011;14881;48.092;11.574;2023-07-02T13:33:24;19.55;;;15.02;;
27428;SDS011;14881;48.092;11.574;2023-07-02T13:35:51;18.27;;;14.25;;
27428;SDS011;14881;48.092;11.574;2023-07-02T13:38:17;17.33;;;13.57;;
27428;SDS011;14881;48.092;11.574;2023-07-02T13:40:44;20.15;;;14.15;;
27428;SDS011;14881;48.092;11.574;2023-07-02T13:43:11;19.05;;;13.45;;
27428;SDS011;14881;48.092;11.574;2023-07-02T13:45:37;17.92;;;13.02;;
27428;SDS011;14881;48.092;11.574;2023-07-02T13:48:04;22.75;;;15.00;;
27428;SDS011;14881;48.092;11.574;2023-07-02T13:50:31;21.38;;;13.90;;
27428;SDS011;14881;48.092;11.574;2023-07-02T13:52:57;19.52;;;13.88;;
27428;SDS011;14881;48.092;11.574;2023-07-02T13:55:26;24.17;;;14.30;;
27428;SDS011;14881;48.092;11.574;2023-07-02T13:57:53;19.48;;;13.95;;
27428;SDS011;14881;48.092;11.574;2023-07-02T14:00:21;21.17;;;14.13;;
27428;SDS011;14881;48.092;11.574;2023-07-02T14:02:47;20.63;;;14.63;;
27428;SDS011;14881;48.092;11.574;2023-07-02T14:05:14;19.02;;;13.20;;
27428;SDS011;14881;48.092;11.574;2023-07-02T14:07:40;21.67;;;14.77;;
27428;SDS011;14881;48.092;11.574;2023-07-02T14:10:07;18.60;;;14.10;;
27428;SDS011;14881;48.092;11.574;2023-07-02T14:12:34;18.85;;;14.73;;
27428;SDS011;14881;48.092;11.574;2023-07-02T14:15:03;20.27;;;14.27;;
27428;SDS011;14881;48.092;11.574;2023-07-02T14:17:37;21.08;;;15.15;;
27428;SDS011;14881;48.092;11.574;2023-07-02T14:20:04;22.40;;;15.32;;
27428;SDS011;14881;48.092;11.574;2023-07-02T14:22:31;25.38;;;15.57;;
27428;SDS011;14881;48.092;11.574;2023-07-02T14:25:01;20.90;;;15.38;;
27428;SDS011;14881;48.092;11.574;2023-07-02T14:27:27;20.27;;;15.05;;
27428;SDS011;14881;48.092;11.574;2023-07-02T14:29:56;21.80;;;15.43;;